Time;durP1;ratioP1;P1;durP2;ratioP2;P2;SDS_P1;SDS_P2;PMS_P1;PMS_P2;Temp;Humidity;BMP_temperature;BMP_pressure;BME280_temperature;BME280_humidity;BME280_pressure;Samples;Min_cycle;Max_cycle;Signal;HPM_P1;HPM_P2
2022/03/12 00:00:15;;;;;;;14.93;8.48;;;;;;;0.98;35.80;102039.44;7396433;19;20022;-65
2022/03/12 00:02:51;;;;;;;14.90;8.60;;;;;;;0.95;36.20;102034.16;7396640;19;20014;-65
2022/03/12 00:05:19;;;;;;;15.27;8.55;;;;;;;0.88;36.15;102025.28;7396437;19;20015;-65
2022/03/12 00:07:51;;;;;;;21.85;9.32;;;;;;;0.89;36.34;102031.34;7398003;19;20475;-65
2022/03/12 00:10:29;;;;;;;16.38;9.88;;;;;;;0.85;36.58;102026.84;7398722;19;20011;-65
2022/03/12 00:12:58;;;;;;;17.20;9.27;;;;;;;0.74;36.25;102018.72;7397299;19;20019;-66
2022/03/12 00:15:26;;;;;;;16.42;9.68;;;;;;;0.77;36.44;102032.63;7398098;19;20015;-66
2022/03/12 00:17:54;;;;;;;16.88;9.20;;;;;;;0.74;36.65;102032.50;7395574;19;20496;-66
2022/03/12 00:20:27;;;;;;;15.48;8.85;;;;;;;0.70;36.66;102033.19;7395969;19;20496;-65
2022/03/12 00:22:58;;;;;;;17.25;9.63;;;;;;;0.65;37.00;102029.56;7395783;19;20015;-65
2022/03/12 00:25:26;;;;;;;23.48;8.85;;;;;;;0.61;36.78;102035.44;7397953;19;20021;-65
2022/03/12 00:27:55;;;;;;;19.50;9.80;;;;;;;0.58;36.97;102045.63;7394924;19;20014;-65
2022/03/12 00:30:26;;;;;;;18.60;9.20;;;;;;;0.54;37.42;102039.44;7396977;19;20055;-65
2022/03/12 00:32:57;;;;;;;16.95;9.65;;;;;;;0.48;37.20;102027.19;7396343;19;20039;-65
2022/03/12 00:35:25;;;;;;;16.63;9.85;;;;;;;0.44;37.34;102033.06;7395765;19;20025;-65
2022/03/12 00:37:53;;;;;;;18.75;10.10;;;;;;;0.38;37.66;102030.22;7395196;19;20018;-65
2022/03/12 00:40:24;;;;;;;19.98;9.57;;;;;;;0.34;38.05;102032.59;7396950;19;20018;-65
2022/03/12 00:42:52;;;;;;;15.48;9.70;;;;;;;0.23;37.97;102021.81;7396287;19;20022;-65
2022/03/12 00:45:20;;;;;;;15.85;9.30;;;;;;;0.21;38.11;102033.81;7395113;19;20018;-66
2022/03/12 00:47:50;;;;;;;16.90;9.00;;;;;;;0.17;38.08;102031.91;7396395;19;20480;-66
2022/03/12 00:50:19;;;;;;;19.52;9.88;;;;;;;0.11;38.33;102024.78;7396681;19;20018;-66
2022/03/12 00:52:47;;;;;;;17.17;9.75;;;;;;;0.06;38.47;102024.59;7395888;19;20018;-66
2022/03/12 00:55:15;;;;;;;18.27;10.27;;;;;;;-0.01;38.54;102022.59;7396545;19;20041;-66
2022/03/12 00:57:46;;;;;;;21.13;10.35;;;;;;;-0.05;38.72;102024.16;7391836;19;20401;-66
2022/03/12 01:00:17;;;;;;;16.48;9.23;;;;;;;-0.09;39.01;102024.84;7396856;19;20031;-66
2022/03/12 01:02:45;;;;;;;16.52;9.13;;;;;;;-0.15;39.16;102027.16;7395735;19;20026;-65
2022/03/12 01:05:16;;;;;;;17.35;10.02;;;;;;;-0.21;39.09;102019.16;7396158;19;20018;-65
2022/03/12 01:07:45;;;;;;;18.45;9.82;;;;;;;-0.27;39.24;102021.47;7396609;19;20022;-65
2022/03/12 01:10:14;;;;;;;17.20;9.07;;;;;;;-0.31;39.26;102022.16;7394515;19;20014;-65
2022/03/12 01:12:43;;;;;;;16.42;9.15;;;;;;;-0.37;39.41;102020.19;7395281;19;20032;-66
2022/03/12 01:15:14;;;;;;;15.38;10.43;;;;;;;-0.42;39.82;102021.69;7394349;19;20022;-66
2022/03/12 01:17:42;;;;;;;17.73;9.63;;;;;;;-0.46;39.56;102017.19;7396396;19;20018;-66
2022/03/12 01:20:11;;;;;;;18.95;10.05;;;;;;;-0.51;39.92;102020.44;7394018;19;20022;-66
2022/03/12 01:22:39;;;;;;;16.55;9.52;;;;;;;-0.55;39.92;102017.69;7393746;19;20606;-66
2022/03/12 01:25:10;;;;;;;16.80;10.13;;;;;;;-0.59;40.15;102026.97;7395728;19;20015;-65
2022/03/12 01:27:38;;;;;;;18.35;9.60;;;;;;;-0.63;40.05;102019.00;7394576;19;20033;-66
2022/03/12 01:30:08;;;;;;;17.85;10.73;;;;;;;-0.67;40.37;102018.00;7395062;19;20495;-66
2022/03/12 01:32:40;;;;;;;16.48;9.07;;;;;;;-0.71;40.44;102021.25;7394667;19;20015;-66
2022/03/12 01:35:09;;;;;;;17.65;10.20;;;;;;;-0.75;40.73;102030.53;7393399;19;20494;-66
2022/03/12 01:37:37;;;;;;;18.73;10.15;;;;;;;-0.81;41.00;102012.22;7393758;19;20019;-66
2022/03/12 01:40:06;;;;;;;17.33;9.52;;;;;;;-0.85;40.99;102018.06;7393523;19;20019;-66
2022/03/12 01:42:34;;;;;;;16.83;10.52;;;;;;;-0.89;41.29;102011.88;7393428;19;20019;-66
2022/03/12 01:45:03;;;;;;;16.95;10.48;;;;;;;-0.93;41.07;102007.41;7395136;19;20018;-66
2022/03/12 01:47:31;;;;;;;17.25;10.60;;;;;;;-0.96;41.35;102009.84;7393285;19;20011;-66
2022/03/12 01:50:02;;;;;;;23.92;10.23;;;;;;;-0.99;41.52;102010.59;7393293;19;20027;-65
2022/03/12 01:52:30;;;;;;;18.40;9.82;;;;;;;-1.04;41.41;102006.03;7394899;19;20028;-66
2022/03/12 01:54:59;;;;;;;20.63;10.70;;;;;;;-1.07;41.59;101999.03;7393653;19;20022;-65
2022/03/12 01:57:29;;;;;;;20.92;10.60;;;;;;;-1.08;41.41;101999.84;7394968;19;20032;-66
2022/03/12 01:59:57;;;;;;;22.15;10.30;;;;;;;-1.10;41.37;101995.44;7393313;19;20089;-66
2022/03/12 02:02:25;;;;;;;20.20;10.20;;;;;;;-1.14;41.81;101999.56;7394126;19;20039;-65
2022/03/12 02:04:55;;;;;;;18.95;10.55;;;;;;;-1.16;41.68;102004.66;7392400;19;20383;-66
2022/03/12 02:07:25;;;;;;;19.58;10.60;;;;;;;-1.19;42.08;101999.38;7393576;19;20041;-66
2022/03/12 02:09:54;;;;;;;17.02;8.77;;;;;;;-1.26;42.12;101989.56;7402199;19;20014;-66
2022/03/12 02:12:22;;;;;;;16.67;9.50;;;;;;;-1.25;42.15;102001.66;7401249;19;20018;-66
2022/03/12 02:14:50;;;;;;;20.45;10.43;;;;;;;-1.28;42.14;101993.75;7403286;19;20011;-66
2022/03/12 02:17:18;;;;;;;19.13;10.85;;;;;;;-1.31;42.28;102012.53;7398723;19;20483;-66
2022/03/12 02:19:47;;;;;;;18.63;10.43;;;;;;;-1.33;42.05;102010.69;7399884;19;20437;-66
2022/03/12 02:22:17;;;;;;;20.35;10.27;;;;;;;-1.35;42.23;102007.19;7401085;19;20031;-66
2022/03/12 02:24:48;;;;;;;17.52;10.05;;;;;;;-1.38;42.57;102009.59;7398502;19;20484;-66
2022/03/12 02:27:17;;;;;;;21.10;10.80;;;;;;;-1.40;42.32;102006.06;7398729;19;20018;-66
2022/03/12 02:29:45;;;;;;;18.75;10.85;;;;;;;-1.44;42.83;102006.72;7401555;19;20090;-65
2022/03/12 02:32:15;;;;;;;18.13;9.95;;;;;;;-1.45;42.68;101999.81;7400786;19;20035;-66
2022/03/12 02:34:46;;;;;;;23.70;12.13;;;;;;;-1.50;42.87;102000.47;7398630;19;20403;-66
2022/03/12 02:37:28;;;;;;;20.13;10.38;;;;;;;-1.50;42.68;102003.06;7401676;19;20018;-66
2022/03/12 02:40:00;;;;;;;18.85;9.95;;;;;;;-1.52;43.50;101996.06;7399679;19;20029;-66
2022/03/12 02:42:29;;;;;;;17.80;10.90;;;;;;;-1.54;42.60;102000.25;7398501;19;20158;-66
2022/03/12 02:44:59;;;;;;;21.50;10.63;;;;;;;-1.57;43.00;102002.69;7400664;19;20483;-66
2022/03/12 02:47:32;;;;;;;19.30;10.15;;;;;;;-1.62;43.02;101994.72;7398404;19;20141;-66
2022/03/12 02:50:03;;;;;;;20.53;11.23;;;;;;;-1.62;43.33;101996.44;7398354;19;20444;-65
2022/03/12 02:52:34;;;;;;;17.00;9.27;;;;;;;-1.68;43.12;101985.03;7398452;19;20445;-66
2022/03/12 02:55:05;;;;;;;23.35;12.13;;;;;;;-1.66;43.63;101988.56;7398319;19;20007;-65
2022/03/12 02:57:33;;;;;;;18.73;10.65;;;;;;;-1.69;43.44;101985.84;7401001;19;20015;-66
2022/03/12 03:00:06;;;;;;;20.13;11.52;;;;;;;-1.71;43.34;101984.88;7398668;19;20022;-66
2022/03/12 03:02:39;;;;;;;19.23;10.90;;;;;;;-1.74;43.38;101984.75;7399899;19;20391;-65
2022/03/12 03:05:08;;;;;;;26.08;11.63;;;;;;;-1.74;43.93;101983.88;7400801;19;20041;-65
2022/03/12 03:07:38;;;;;;;21.42;11.07;;;;;;;-1.77;43.91;101984.56;7400451;19;20034;-65
2022/03/12 03:10:09;;;;;;;20.92;10.25;;;;;;;-1.77;43.59;101994.00;7397366;19;20486;-65
2022/03/12 03:12:38;;;;;;;20.83;11.95;;;;;;;-1.80;43.69;101995.59;7397906;19;20070;-65
2022/03/12 03:15:07;;;;;;;20.95;12.05;;;;;;;-1.81;43.53;101985.25;7397547;19;20030;-65
2022/03/12 03:17:37;;;;;;;19.42;10.43;;;;;;;-1.82;43.71;101997.22;7399952;19;20036;-65
2022/03/12 03:20:06;;;;;;;20.45;10.77;;;;;;;-1.84;43.74;101991.13;7396334;19;20019;-65
2022/03/12 03:22:34;;;;;;;21.08;10.93;;;;;;;-1.89;43.97;101984.88;7398770;19;20014;-65
2022/03/12 03:25:02;;;;;;;21.05;10.43;;;;;;;-1.86;43.94;101989.28;7399720;19;20019;-65
2022/03/12 03:27:33;;;;;;;22.65;13.07;;;;;;;-1.88;44.10;101994.34;7397965;19;20024;-65
2022/03/12 03:30:01;;;;;;;18.40;10.73;;;;;;;-1.90;44.18;101998.53;7399861;19;20018;-65
2022/03/12 03:32:29;;;;;;;22.38;11.35;;;;;;;-1.90;44.06;102002.81;7398670;19;20039;-66
2022/03/12 03:34:57;;;;;;;20.05;11.75;;;;;;;-1.92;44.18;101994.13;7396946;19;20027;-65
2022/03/12 03:37:25;;;;;;;19.40;10.88;;;;;;;-1.95;44.34;101997.44;7398964;19;20019;-65
2022/03/12 03:39:53;;;;;;;18.40;10.25;;;;;;;-1.97;44.26;101988.78;7397654;19;20028;-65
2022/03/12 03:42:23;;;;;;;19.80;10.65;;;;;;;-1.98;44.35;101989.56;7398474;19;20035;-65
2022/03/12 03:44:57;;;;;;;22.88;10.63;;;;;;;-2.00;44.50;101984.34;7398607;19;20384;-65
2022/03/12 03:47:25;;;;;;;18.27;10.95;;;;;;;-2.01;44.16;101991.97;7397021;19;20014;-65
2022/03/12 03:49:53;;;;;;;24.60;12.32;;;;;;;-2.03;44.46;101994.47;7398760;19;20019;-65
2022/03/12 03:52:21;;;;;;;22.40;11.30;;;;;;;-2.04;44.12;101990.13;7398111;19;20274;-65
2022/03/12 03:54:50;;;;;;;23.08;11.43;;;;;;;-2.04;44.44;101989.25;7396521;19;20018;-65
2022/03/12 03:57:19;;;;;;;20.85;10.77;;;;;;;-2.05;44.67;101987.50;7396313;19;20018;-65
2022/03/12 03:59:47;;;;;;;20.83;10.77;;;;;;;-2.10;44.72;101979.53;7397418;19;20031;-65
2022/03/12 04:02:18;;;;;;;19.55;10.68;;;;;;;-2.09;44.53;101996.72;7396228;19;20035;-65
2022/03/12 04:04:48;;;;;;;21.13;11.10;;;;;;;-2.10;44.76;101997.53;7398645;19;20011;-66
2022/03/12 04:07:16;;;;;;;21.17;11.30;;;;;;;-2.11;44.79;101994.91;7398204;19;20032;-65
2022/03/12 04:09:44;;;;;;;17.92;9.90;;;;;;;-2.13;44.83;101993.13;7398137;19;20019;-65
2022/03/12 04:12:13;;;;;;;17.75;10.68;;;;;;;-2.13;44.58;101998.25;7397518;19;20031;-66
2022/03/12 04:14:41;;;;;;;20.08;10.55;;;;;;;-2.15;44.82;101993.84;7396036;19;20036;-66
2022/03/12 04:17:13;;;;;;;21.23;11.65;;;;;;;-2.18;45.04;101994.59;7397904;19;20039;-66
2022/03/12 04:19:44;;;;;;;21.52;11.30;;;;;;;-2.18;45.16;101991.16;7396234;19;20014;-66
2022/03/12 04:22:12;;;;;;;22.17;11.75;;;;;;;-2.19;45.02;101997.09;7395759;19;20026;-65
2022/03/12 04:24:40;;;;;;;21.80;11.15;;;;;;;-2.21;44.86;101997.00;7395845;19;20494;-66
2022/03/12 04:27:08;;;;;;;19.77;11.40;;;;;;;-2.21;44.94;101998.69;7396945;19;20019;-65
2022/03/12 04:29:36;;;;;;;19.58;11.43;;;;;;;-2.24;44.89;101996.84;7397841;19;20036;-66
2022/03/12 04:32:08;;;;;;;20.52;11.32;;;;;;;-2.23;44.97;102000.31;7395153;19;20018;-65
2022/03/12 04:34:36;;;;;;;21.50;11.85;;;;;;;-2.26;45.32;101995.00;7395860;19;20033;-66
2022/03/12 04:37:07;;;;;;;22.17;11.45;;;;;;;-2.27;45.36;101993.22;7397606;19;20031;-67
2022/03/12 04:39:37;;;;;;;19.70;10.38;;;;;;;-2.29;45.26;101998.28;7396841;19;20078;-67
2022/03/12 04:42:07;;;;;;;22.67;11.50;;;;;;;-2.31;45.20;102000.78;7397055;19;20018;-66
2022/03/12 04:44:35;;;;;;;21.48;11.50;;;;;;;-2.33;45.37;101996.38;7396637;19;20035;-67
2022/03/12 04:47:04;;;;;;;20.00;10.45;;;;;;;-2.34;45.50;102000.66;7396805;19;20090;-64
2022/03/12 04:49:32;;;;;;;24.45;12.43;;;;;;;-2.36;45.72;101996.25;7394884;19;20085;-66
2022/03/12 04:52:00;;;;;;;23.05;10.85;;;;;;;-2.36;45.23;101996.25;7396347;19;20037;-66
2022/03/12 04:54:35;;;;;;;21.20;11.35;;;;;;;-2.38;45.58;101998.72;7396668;19;20027;-66
2022/03/12 04:57:04;;;;;;;19.45;11.20;;;;;;;-2.40;45.46;101995.19;7396900;19;20035;-65
2022/03/12 04:59:32;;;;;;;24.60;11.35;;;;;;;-2.42;45.57;101995.91;7395735;19;20487;-66
2022/03/12 05:02:00;;;;;;;21.75;12.57;;;;;;;-2.45;45.50;101994.06;7396092;19;20036;-66
2022/03/12 05:04:28;;;;;;;25.33;12.60;;;;;;;-2.46;45.63;101993.19;7396238;19;20018;-66
2022/03/12 05:06:56;;;;;;;22.15;11.27;;;;;;;-2.48;45.66;101996.47;7394560;19;20014;-66
2022/03/12 05:09:24;;;;;;;21.85;10.60;;;;;;;-2.50;45.76;101993.81;7396088;19;20018;-66
2022/03/12 05:11:55;;;;;;;22.15;11.05;;;;;;;-2.54;46.18;101997.06;7395798;19;20077;-66
2022/03/12 05:14:23;;;;;;;22.38;11.05;;;;;;;-2.55;46.01;101996.94;7394935;19;20022;-66
2022/03/12 05:16:51;;;;;;;21.05;11.57;;;;;;;-2.58;46.11;101992.53;7393882;19;20527;-65
2022/03/12 05:19:20;;;;;;;21.90;12.27;;;;;;;-2.60;46.46;101999.31;7395750;19;20460;-65
2022/03/12 05:21:48;;;;;;;18.55;10.90;;;;;;;-2.63;46.08;102002.59;7395247;19;20376;-65
2022/03/12 05:24:23;;;;;;;21.80;11.63;;;;;;;-2.64;46.38;102010.22;7395603;19;20039;-65
2022/03/12 05:26:51;;;;;;;21.30;12.00;;;;;;;-2.66;46.29;102001.53;7395519;19;20035;-65
2022/03/12 05:29:22;;;;;;;24.58;12.13;;;;;;;-2.67;46.69;102004.91;7395912;19;20027;-66
2022/03/12 05:31:52;;;;;;;19.70;11.45;;;;;;;-2.69;46.61;102014.22;7394822;19;20392;-65
2022/03/12 05:34:21;;;;;;;29.40;11.75;;;;;;;-2.71;46.41;102010.69;7393449;19;20471;-66
2022/03/12 05:36:49;;;;;;;27.20;12.80;;;;;;;-2.73;46.32;102013.19;7393592;19;20023;-66
2022/03/12 05:39:18;;;;;;;24.80;11.35;;;;;;;-2.75;46.34;102013.91;7393515;19;20018;-66
2022/03/12 05:41:48;;;;;;;27.27;12.30;;;;;;;-2.76;46.40;102010.44;7394386;19;20360;-66
2022/03/12 05:44:16;;;;;;;101.38;46.70;;;;;;;-2.79;46.55;102024.00;7406745;19;20025;-66
2022/03/12 05:46:47;;;;;;;35.08;16.85;;;;;;;-2.78;46.96;102022.31;7407595;19;20039;-66
2022/03/12 05:49:17;;;;;;;23.60;12.25;;;;;;;-2.79;46.86;102028.28;7409926;19;20094;-67
2022/03/12 05:51:45;;;;;;;24.58;12.05;;;;;;;-2.82;46.97;102023.84;7409238;19;20052;-65
2022/03/12 05:54:13;;;;;;;24.13;12.13;;;;;;;-2.80;46.98;102034.22;7409244;19;20031;-66
2022/03/12 05:56:47;;;;;;;23.02;11.27;;;;;;;-2.82;47.27;102031.56;7409036;19;20023;-67
2022/03/12 05:59:16;;;;;;;24.83;11.75;;;;;;;-2.82;47.02;102041.84;7408962;19;20014;-66
2022/03/12 06:01:46;;;;;;;22.15;12.57;;;;;;;-2.81;47.43;102042.72;7407198;19;20018;-66
2022/03/12 06:04:23;;;;;;;26.90;11.75;;;;;;;-2.81;46.95;102051.28;7409396;19;20018;-67
2022/03/12 06:06:51;;;;;;;19.50;11.02;;;;;;;-2.85;47.11;102040.78;7409194;19;20025;-66
2022/03/12 06:09:20;;;;;;;21.55;10.85;;;;;;;-2.81;47.10;102042.72;7406771;19;20035;-65
2022/03/12 06:12:17;;;;;;;24.70;12.50;;;;;;;-2.81;47.16;102048.72;7407836;19;20549;-65
2022/03/12 06:14:50;;;;;;;22.52;11.32;;;;;;;-2.79;47.31;102046.25;7407162;19;20011;-65
2022/03/12 06:17:22;;;;;;;66.05;30.95;;;;;;;-2.79;47.42;102047.13;7408959;19;20018;-66
2022/03/12 06:19:50;;;;;;;37.40;18.55;;;;;;;-2.78;47.33;102038.63;7408560;19;20020;-67
2022/03/12 06:22:18;;;;;;;23.88;12.30;;;;;;;-2.76;47.44;102038.69;7407885;19;20082;-66
2022/03/12 06:24:48;;;;;;;23.73;12.23;;;;;;;-2.71;47.60;102036.38;7408355;19;20045;-65
2022/03/12 06:27:23;;;;;;;21.52;11.52;;;;;;;-2.69;47.30;102038.22;7407383;19;20033;-65
2022/03/12 06:29:58;;;;;;;22.30;13.40;;;;;;;-2.66;47.76;102038.38;7408290;19;20037;-65
2022/03/12 06:32:30;;;;;;;22.02;11.20;;;;;;;-2.63;47.39;102036.00;7406837;19;20497;-66
2022/03/12 06:34:58;;;;;;;22.10;11.48;;;;;;;-2.58;47.42;102037.91;7406159;19;20015;-66
2022/03/12 06:37:27;;;;;;;24.20;11.98;;;;;;;-2.59;47.23;102039.63;7405866;19;20078;-66
2022/03/12 06:39:56;;;;;;;20.65;11.63;;;;;;;-2.52;47.00;102045.94;7405538;19;20037;-66
2022/03/12 06:42:25;;;;;;;22.73;11.38;;;;;;;-2.49;47.14;102048.66;7405326;19;20467;-66
2022/03/12 06:44:56;;;;;;;20.85;11.15;;;;;;;-2.46;47.38;102038.56;7405457;19;20019;-66
2022/03/12 06:47:33;;;;;;;25.85;12.77;;;;;;;-2.41;47.43;102049.06;7408190;19;20019;-67
2022/03/12 06:50:05;;;;;;;23.25;12.40;;;;;;;-2.35;47.05;102044.25;7405921;19;20054;-66
2022/03/12 06:52:34;;;;;;;21.65;11.63;;;;;;;-2.31;47.50;102054.78;7406991;19;20015;-66
2022/03/12 06:55:02;;;;;;;22.50;11.77;;;;;;;-2.25;47.34;102063.63;7398744;19;20027;-66
2022/03/12 06:57:30;;;;;;;26.13;12.70;;;;;;;-2.21;47.73;102051.00;7398397;19;20022;-66
2022/03/12 06:59:58;;;;;;;25.77;11.85;;;;;;;-2.14;46.94;102058.25;7397919;19;20074;-66
2022/03/12 07:02:27;;;;;;;21.77;11.70;;;;;;;-2.06;47.21;102057.72;7400592;19;20082;-66
2022/03/12 07:04:55;;;;;;;23.13;11.93;;;;;;;-2.00;47.24;102058.03;7399660;19;20429;-66
2022/03/12 07:07:25;;;;;;;20.52;12.57;;;;;;;-1.93;47.05;102064.38;7399524;19;20542;-66
2022/03/12 07:09:53;;;;;;;27.48;12.35;;;;;;;-1.87;46.88;102069.84;7400395;19;20081;-66
2022/03/12 07:12:21;;;;;;;21.95;11.68;;;;;;;-1.80;46.91;102061.63;7399127;19;20045;-66
2022/03/12 07:14:49;;;;;;;22.77;12.32;;;;;;;-1.72;46.83;102056.84;7399652;19;20091;-66
2022/03/12 07:17:18;;;;;;;21.15;11.65;;;;;;;-1.64;46.92;102060.72;7399664;19;20031;-67
2022/03/12 07:19:46;;;;;;;25.52;11.90;;;;;;;-1.56;46.85;102051.66;7398848;19;20406;-66
2022/03/12 07:22:15;;;;;;;18.92;10.40;;;;;;;-1.49;46.71;102045.13;7396534;19;20030;-66
2022/03/12 07:24:45;;;;;;;19.88;10.85;;;;;;;-1.39;46.41;102055.06;7398977;19;20444;-66
2022/03/12 07:27:14;;;;;;;22.75;10.63;;;;;;;-1.30;46.15;102062.34;7399211;19;20086;-66
2022/03/12 07:29:42;;;;;;;18.45;11.93;;;;;;;-1.21;45.66;102067.94;7397053;19;20018;-66
2022/03/12 07:32:11;;;;;;;18.77;10.57;;;;;;;-1.08;45.47;102055.66;7396706;19;20026;-66
2022/03/12 07:34:39;;;;;;;17.10;8.90;;;;;;;-0.94;45.05;102064.88;7398430;19;20551;-66
2022/03/12 07:37:08;;;;;;;19.67;9.55;;;;;;;-0.84;44.64;102043.88;7398647;19;20488;-66
2022/03/12 07:39:37;;;;;;;14.45;9.15;;;;;;;-0.70;44.14;102053.94;7398859;19;20014;-67
2022/03/12 07:42:09;;;;;;;19.45;9.63;;;;;;;-0.55;42.68;102048.63;7396336;19;20086;-66
2022/03/12 07:44:37;;;;;;;18.23;8.40;;;;;;;-0.39;41.97;102048.47;7397083;19;20022;-66
2022/03/12 07:47:05;;;;;;;10.10;6.50;;;;;;;-0.19;40.19;102049.34;7398766;19;20363;-66
2022/03/12 07:49:34;;;;;;;11.13;6.53;;;;;;;0.00;39.63;102042.41;7398610;19;20014;-66
2022/03/12 07:52:02;;;;;;;13.07;6.85;;;;;;;0.19;39.04;102038.91;7396073;19;20019;-66
2022/03/12 07:54:31;;;;;;;9.50;6.10;;;;;;;0.39;37.58;102042.31;7398553;19;20019;-66
2022/03/12 07:56:59;;;;;;;10.35;5.97;;;;;;;0.58;36.37;102040.47;7398948;19;20026;-66
2022/03/12 07:59:31;;;;;;;16.38;7.15;;;;;;;0.77;36.20;102042.97;7398485;19;20027;-66
2022/03/12 08:02:00;;;;;;;9.20;6.22;;;;;;;0.93;36.47;102038.38;7396966;19;20018;-66
2022/03/12 08:04:30;;;;;;;12.95;6.45;;;;;;;1.12;34.91;102046.00;7395856;19;20014;-66
2022/03/12 08:06:59;;;;;;;11.60;5.47;;;;;;;1.25;34.91;102044.78;7397944;19;20029;-66
2022/03/12 08:09:27;;;;;;;7.93;5.18;;;;;;;1.40;35.40;102051.34;7397910;19;20019;-68
2022/03/12 08:11:57;;;;;;;8.20;5.63;;;;;;;1.52;34.09;102051.81;7395791;19;20028;-67
2022/03/12 08:14:25;;;;;;;9.30;5.30;;;;;;;1.66;34.04;102048.84;7397980;19;20019;-66
2022/03/12 08:16:56;;;;;;;22.40;11.02;;;;;;;1.77;34.27;102042.34;7397641;19;20018;-66
2022/03/12 08:19:24;;;;;;;13.10;7.93;;;;;;;1.88;34.53;102050.47;7397950;19;20025;-66
2022/03/12 08:21:53;;;;;;;10.50;7.22;;;;;;;1.98;34.55;102055.13;7395957;19;20110;-66
2022/03/12 08:24:21;;;;;;;9.27;5.95;;;;;;;2.06;33.53;102048.53;7397736;19;20014;-66
2022/03/12 08:26:51;;;;;;;10.63;5.63;;;;;;;2.17;32.97;102055.78;7395723;19;20090;-66
2022/03/12 08:29:21;;;;;;;8.90;5.28;;;;;;;2.26;33.68;102061.25;7395518;19;20477;-66
2022/03/12 08:31:49;;;;;;;7.68;5.25;;;;;;;2.35;33.16;102048.63;7395058;19;20041;-66
2022/03/12 08:34:20;;;;;;;9.35;5.30;;;;;;;2.45;31.88;102049.78;7396862;19;20015;-66
2022/03/12 08:36:48;;;;;;;7.82;5.47;;;;;;;2.53;31.25;102043.16;7395297;19;20078;-66
2022/03/12 08:39:17;;;;;;;7.32;4.90;;;;;;;2.65;32.21;102054.75;7396539;19;20078;-67
2022/03/12 08:41:46;;;;;;;8.60;5.18;;;;;;;2.73;31.47;102054.16;7395303;19;20091;-67
2022/03/12 08:44:14;;;;;;;9.18;5.05;;;;;;;2.81;30.93;102048.34;7396139;19;20392;-66
2022/03/12 08:46:45;;;;;;;7.30;4.60;;;;;;;2.89;31.55;102044.28;7396355;19;20562;-66
2022/03/12 08:49:13;;;;;;;8.18;4.60;;;;;;;2.98;30.69;102052.31;7397130;19;20011;-67
2022/03/12 08:51:45;;;;;;;9.90;5.03;;;;;;;3.08;31.16;102050.91;7394718;19;20022;-66
2022/03/12 08:54:14;;;;;;;6.35;4.22;;;;;;;3.15;30.38;102046.78;7397357;19;20019;-66
2022/03/12 08:56:43;;;;;;;7.40;4.65;;;;;;;3.21;29.53;102049.53;7396541;19;20027;-66
2022/03/12 08:59:12;;;;;;;7.95;4.80;;;;;;;3.30;29.87;102055.03;7396288;19;20007;-66
2022/03/12 09:01:41;;;;;;;6.70;4.45;;;;;;;3.37;28.67;102051.75;7395941;19;20019;-67
2022/03/12 09:04:09;;;;;;;6.93;4.95;;;;;;;3.45;28.75;102054.59;7394374;19;20025;-65
2022/03/12 09:06:38;;;;;;;7.53;4.97;;;;;;;3.53;29.46;102057.41;7395974;19;20070;-65
2022/03/12 09:09:08;;;;;;;6.60;4.70;;;;;;;3.62;27.67;102046.41;7395909;19;20044;-67
2022/03/12 09:11:37;;;;;;;10.13;4.90;;;;;;;3.70;29.00;102045.78;7396165;19;20094;-66
2022/03/12 09:14:05;;;;;;;7.45;4.57;;;;;;;3.79;27.27;102052.03;7394106;19;20074;-66
2022/03/12 09:16:35;;;;;;;7.05;4.65;;;;;;;3.85;27.87;102040.09;7393884;19;20018;-67
2022/03/12 09:19:03;;;;;;;6.55;4.75;;;;;;;3.94;27.57;102044.66;7393579;19;20026;-66
2022/03/12 09:21:31;;;;;;;5.22;3.88;;;;;;;4.01;28.28;102037.94;7394685;19;20014;-65
2022/03/12 09:24:00;;;;;;;5.70;4.07;;;;;;;4.07;28.45;102041.56;7393521;19;20022;-67
2022/03/12 09:26:30;;;;;;;6.93;4.45;;;;;;;4.15;27.10;102035.69;7393757;19;20019;-67
2022/03/12 09:28:59;;;;;;;9.70;4.57;;;;;;;4.21;27.39;102038.44;7393540;19;20014;-66
2022/03/12 09:31:27;;;;;;;9.98;4.68;;;;;;;4.28;27.59;102037.75;7395340;19;20026;-67
2022/03/12 09:33:55;;;;;;;8.57;4.53;;;;;;;4.34;27.56;102024.91;7393678;19;20019;-65
2022/03/12 09:36:24;;;;;;;9.32;4.03;;;;;;;4.42;26.25;102026.81;7395006;19;20033;-65
2022/03/12 09:38:52;;;;;;;6.63;4.20;;;;;;;4.49;27.12;102023.53;7394471;19;20506;-66
2022/03/12 09:41:20;;;;;;;8.38;5.63;;;;;;;4.58;26.49;102023.75;7394118;19;20035;-65
2022/03/12 09:43:51;;;;;;;8.00;4.47;;;;;;;4.67;25.24;102010.94;7393650;19;20475;-66
2022/03/12 09:46:20;;;;;;;7.32;4.10;;;;;;;4.78;24.97;102020.72;7392912;19;20483;-66
2022/03/12 09:48:48;;;;;;;5.90;4.55;;;;;;;4.86;26.25;102003.56;7395035;19;20362;-66
2022/03/12 09:51:17;;;;;;;7.97;4.28;;;;;;;4.94;25.22;102017.63;7393174;19;20078;-66
2022/03/12 09:53:45;;;;;;;5.53;4.55;;;;;;;4.98;25.71;102008.16;7393092;19;20025;-66
2022/03/12 09:56:13;;;;;;;7.20;4.38;;;;;;;5.10;25.57;102004.97;7392916;19;20018;-66
2022/03/12 09:58:42;;;;;;;5.57;4.20;;;;;;;5.19;25.84;102015.53;7392740;19;20031;-68
2022/03/12 10:01:14;;;;;;;6.60;4.68;;;;;;;5.28;25.33;101999.25;7394252;19;20010;-66
2022/03/12 10:03:43;;;;;;;7.15;4.10;;;;;;;5.36;25.27;102001.16;7392683;19;20014;-66
2022/03/12 10:06:11;;;;;;;8.45;4.63;;;;;;;5.44;25.21;102003.91;7392786;19;20015;-66
2022/03/12 10:08:40;;;;;;;6.28;3.92;;;;;;;5.53;25.14;102013.63;7394449;19;20086;-66
2022/03/12 10:11:08;;;;;;;5.63;3.95;;;;;;;5.61;24.62;102003.34;7394403;19;20023;-66
2022/03/12 10:13:36;;;;;;;6.65;4.47;;;;;;;5.67;24.86;102006.06;7391993;19;20022;-67
2022/03/12 10:16:05;;;;;;;7.22;4.53;;;;;;;5.74;24.67;102002.75;7392028;19;20049;-67
2022/03/12 10:18:36;;;;;;;6.80;3.80;;;;;;;5.82;24.22;102002.88;7394242;19;20015;-67
2022/03/12 10:21:04;;;;;;;10.60;4.13;;;;;;;5.90;24.37;101998.69;7392552;19;20019;-66
2022/03/12 10:23:33;;;;;;;6.72;4.70;;;;;;;5.98;22.69;101988.41;7392165;19;20023;-67
2022/03/12 10:26:01;;;;;;;13.30;4.30;;;;;;;6.05;23.86;101997.25;7390999;19;20487;-66
2022/03/12 10:28:34;;;;;;;8.02;4.45;;;;;;;6.10;24.08;101986.03;7392372;19;20032;-66
2022/03/12 10:31:04;;;;;;;8.95;3.97;;;;;;;6.15;24.27;101979.16;7398314;19;20375;-67
2022/03/12 10:33:33;;;;;;;7.40;4.38;;;;;;;6.22;24.29;101980.16;7398018;19;20022;-66
2022/03/12 10:36:13;;;;;;;6.75;4.15;;;;;;;6.29;22.53;101981.13;7401197;19;20053;-66
2022/03/12 10:38:43;;;;;;;7.55;4.63;;;;;;;6.41;23.63;101970.00;7398473;19;20018;-67
2022/03/12 10:41:12;;;;;;;8.90;5.05;;;;;;;6.51;23.31;101958.88;7400463;19;20038;-67
2022/03/12 10:43:46;;;;;;;6.20;4.00;;;;;;;6.56;21.65;101946.78;7398342;19;20014;-66
2022/03/12 10:46:23;;;;;;;7.43;4.38;;;;;;;6.67;22.14;101936.47;7401133;19;20091;-66
2022/03/12 10:48:56;;;;;;;6.43;4.07;;;;;;;6.75;21.52;101921.81;7398527;19;20019;-67
2022/03/12 10:51:29;;;;;;;6.63;4.30;;;;;;;6.83;21.08;101914.97;7399849;19;20019;-67
2022/03/12 10:54:04;;;;;;;5.53;3.83;;;;;;;6.94;22.25;101920.31;7397817;19;20423;-67
2022/03/12 10:56:43;;;;;;;;;;;;;;;7.03;20.69;101916.94;7401779;19;20425;-66
2022/03/12 10:59:17;;;;;;;6.10;4.22;;;;;;;7.11;21.65;101920.50;7401094;19;20002;-66
2022/03/12 11:01:53;;;;;;;7.63;4.07;;;;;;;7.19;21.36;101920.63;7398091;19;20014;-68
2022/03/12 11:04:23;;;;;;;5.75;4.28;;;;;;;7.28;21.99;101925.94;7398682;19;20019;-68
2022/03/12 11:06:54;;;;;;;6.43;3.88;;;;;;;7.37;20.94;101926.88;7400176;19;20028;-66
2022/03/12 11:09:34;;;;;;;5.43;3.83;;;;;;;7.44;20.54;101936.53;7399966;19;20483;-66
2022/03/12 11:12:05;;;;;;;6.70;4.22;;;;;;;7.48;20.47;101930.47;7399819;19;20018;-65
2022/03/12 11:14:34;;;;;;;5.80;4.15;;;;;;;7.55;20.96;101939.25;7397764;19;20030;-66
2022/03/12 11:17:04;;;;;;;7.32;4.47;;;;;;;7.60;21.41;101937.56;7398128;19;20018;-66
2022/03/12 11:19:42;;;;;;;7.32;3.92;;;;;;;7.65;20.88;101939.34;7399986;19;20035;-66
2022/03/12 11:22:18;;;;;;;8.10;4.28;;;;;;;7.71;20.55;101933.31;7396899;19;20014;-67
2022/03/12 11:24:49;;;;;;;5.63;3.92;;;;;;;7.78;21.73;101937.72;7397031;19;20100;-68
2022/03/12 11:27:29;;;;;;;7.93;4.13;;;;;;;7.85;21.64;101929.94;7397091;19;20014;-68
2022/03/12 11:30:00;;;;;;;5.97;3.92;;;;;;;7.92;21.11;101935.25;7399386;19;20031;-68